sensor_id;sensor_type;location;lat;lon;timestamp;P1;durP1;ratioP1;P2;durP2;ratioP2
3979;SDS011;2004;52.452;13.120;2022-12-07T00:03:27;14.17;;;8.87;;
3979;SDS011;2004;52.452;13.120;2022-12-07T00:11:18;10.43;;;7.13;;
3979;SDS011;2004;52.452;13.120;2022-12-07T00:19:11;8.50;;;6.00;;
3979;SDS011;2004;52.452;13.120;2022-12-07T00:27:03;9.33;;;7.23;;
3979;SDS011;2004;52.452;13.120;2022-12-07T00:34:53;8.87;;;5.83;;
3979;SDS011;2004;52.452;13.120;2022-12-07T00:42:44;7.73;;;5.70;;
3979;SDS011;2004;52.452;13.120;2022-12-07T00:50:34;7.27;;;5.60;;
3979;SDS011;2004;52.452;13.120;2022-12-07T00:58:24;7.13;;;5.00;;
3979;SDS011;2004;52.452;13.120;2022-12-07T01:06:16;7.93;;;5.43;;
3979;SDS011;2004;52.452;13.120;2022-12-07T01:14:08;7.13;;;5.30;;
3979;SDS011;2004;52.452;13.120;2022-12-07T01:21:59;9.00;;;5.93;;
3979;SDS011;2004;52.452;13.120;2022-12-07T01:29:50;6.40;;;5.13;;
3979;SDS011;2004;52.452;13.120;2022-12-07T01:37:41;7.60;;;5.80;;
3979;SDS011;2004;52.452;13.120;2022-12-07T01:45:38;6.77;;;5.17;;
3979;SDS011;2004;52.452;13.120;2022-12-07T01:53:30;8.57;;;5.13;;
3979;SDS011;2004;52.452;13.120;2022-12-07T02:01:24;5.60;;;4.47;;
3979;SDS011;2004;52.452;13.120;2022-12-07T02:09:15;6.80;;;4.50;;
3979;SDS011;2004;52.452;13.120;2022-12-07T02:33:31;10.90;;;6.63;;
3979;SDS011;2004;52.452;13.120;2022-12-07T02:49:21;10.30;;;6.90;;
3979;SDS011;2004;52.452;13.120;2022-12-07T03:05:40;12.13;;;7.50;;
3979;SDS011;2004;52.452;13.120;2022-12-07T03:13:47;12.70;;;8.63;;
3979;SDS011;2004;52.452;13.120;2022-12-07T03:21:57;16.20;;;8.93;;
3979;SDS011;2004;52.452;13.120;2022-12-07T03:29:54;14.30;;;8.47;;
3979;SDS011;2004;52.452;13.120;2022-12-07T03:45:59;18.70;;;9.37;;
3979;SDS011;2004;52.452;13.120;2022-12-07T04:02:25;27.80;;;11.87;;
3979;SDS011;2004;52.452;13.120;2022-12-07T04:10:17;22.20;;;12.07;;
3979;SDS011;2004;52.452;13.120;2022-12-07T04:18:08;24.20;;;13.27;;
3979;SDS011;2004;52.452;13.120;2022-12-07T04:25:59;24.47;;;12.57;;
3979;SDS011;2004;52.452;13.120;2022-12-07T04:33:49;28.90;;;15.40;;
3979;SDS011;2004;52.452;13.120;2022-12-07T04:41:39;32.87;;;15.53;;
3979;SDS011;2004;52.452;13.120;2022-12-07T04:49:30;28.20;;;14.10;;
3979;SDS011;2004;52.452;13.120;2022-12-07T04:57:20;33.97;;;16.57;;
3979;SDS011;2004;52.452;13.120;2022-12-07T05:05:11;34.17;;;15.90;;
3979;SDS011;2004;52.452;13.120;2022-12-07T05:13:01;38.23;;;18.43;;
3979;SDS011;2004;52.452;13.120;2022-12-07T05:20:52;45.87;;;18.23;;
3979;SDS011;2004;52.452;13.120;2022-12-07T05:28:43;58.07;;;19.30;;
3979;SDS011;2004;52.452;13.120;2022-12-07T05:36:33;41.30;;;19.27;;
3979;SDS011;2004;52.452;13.120;2022-12-07T05:44:24;42.70;;;19.87;;
3979;SDS011;2004;52.452;13.120;2022-12-07T05:52:14;49.83;;;21.80;;
3979;SDS011;2004;52.452;13.120;2022-12-07T06:00:05;52.00;;;20.30;;
3979;SDS011;2004;52.452;13.120;2022-12-07T06:07:56;51.80;;;20.87;;
3979;SDS011;2004;52.452;13.120;2022-12-07T06:15:47;55.87;;;23.00;;
3979;SDS011;2004;52.452;13.120;2022-12-07T06:23:37;56.10;;;22.60;;
3979;SDS011;2004;52.452;13.120;2022-12-07T06:31:27;53.57;;;22.87;;
3979;SDS011;2004;52.452;13.120;2022-12-07T06:39:20;48.77;;;21.33;;
3979;SDS011;2004;52.452;13.120;2022-12-07T06:47:12;52.90;;;22.47;;
3979;SDS011;2004;52.452;13.120;2022-12-07T06:55:02;52.00;;;21.23;;
3979;SDS011;2004;52.452;13.120;2022-12-07T07:02:53;47.80;;;20.50;;
3979;SDS011;2004;52.452;13.120;2022-12-07T07:10:43;40.93;;;17.97;;
3979;SDS011;2004;52.452;13.120;2022-12-07T07:18:34;38.90;;;18.67;;
3979;SDS011;2004;52.452;13.120;2022-12-07T07:26:25;38.03;;;18.93;;
3979;SDS011;2004;52.452;13.120;2022-12-07T07:34:15;39.43;;;17.90;;
3979;SDS011;2004;52.452;13.120;2022-12-07T07:42:06;44.83;;;17.63;;
3979;SDS011;2004;52.452;13.120;2022-12-07T07:49:57;28.10;;;14.30;;
3979;SDS011;2004;52.452;13.120;2022-12-07T07:57:48;26.87;;;12.20;;
3979;SDS011;2004;52.452;13.120;2022-12-07T08:05:38;15.43;;;8.60;;
3979;SDS011;2004;52.452;13.120;2022-12-07T08:13:28;12.63;;;6.10;;
3979;SDS011;2004;52.452;13.120;2022-12-07T08:21:19;11.03;;;6.17;;
3979;SDS011;2004;52.452;13.120;2022-12-07T08:29:10;11.23;;;6.50;;
3979;SDS011;2004;52.452;13.120;2022-12-07T08:37:01;7.63;;;3.90;;
3979;SDS011;2004;52.452;13.120;2022-12-07T08:44:51;5.90;;;4.07;;
3979;SDS011;2004;52.452;13.120;2022-12-07T08:52:42;2.23;;;2.13;;
3979;SDS011;2004;52.452;13.120;2022-12-07T09:00:33;2.70;;;1.97;;
3979;SDS011;2004;52.452;13.120;2022-12-07T09:08:25;10.13;;;1.70;;
3979;SDS011;2004;52.452;13.120;2022-12-07T09:16:20;4.67;;;2.00;;
3979;SDS011;2004;52.452;13.120;2022-12-07T09:24:11;2.97;;;2.87;;
3979;SDS011;2004;52.452;13.120;2022-12-07T09:32:03;4.83;;;2.13;;
3979;SDS011;2004;52.452;13.120;2022-12-07T09:39:53;1.80;;;1.70;;
3979;SDS011;2004;52.452;13.120;2022-12-07T09:47:44;2.03;;;1.87;;
3979;SDS011;2004;52.452;13.120;2022-12-07T09:55:35;2.03;;;1.93;;
3979;SDS011;2004;52.452;13.120;2022-12-07T10:03:27;2.20;;;2.10;;
3979;SDS011;2004;52.452;13.120;2022-12-07T10:11:19;3.30;;;2.40;;
3979;SDS011;2004;52.452;13.120;2022-12-07T10:19:20;2.70;;;2.50;;
3979;SDS011;2004;52.452;13.120;2022-12-07T10:27:19;3.53;;;2.77;;
3979;SDS011;2004;52.452;13.120;2022-12-07T10:35:29;4.43;;;4.03;;
3979;SDS011;2004;52.452;13.120;2022-12-07T10:43:20;12.23;;;3.60;;
3979;SDS011;2004;52.452;13.120;2022-12-07T10:51:12;7.93;;;3.83;;
3979;SDS011;2004;52.452;13.120;2022-12-07T11:07:47;6.23;;;3.13;;
3979;SDS011;2004;52.452;13.120;2022-12-07T11:24:15;3.50;;;3.20;;
3979;SDS011;2004;52.452;13.120;2022-12-07T11:40:26;11.60;;;4.17;;
3979;SDS011;2004;52.452;13.120;2022-12-07T11:48:31;4.67;;;2.50;;
3979;SDS011;2004;52.452;13.120;2022-12-07T11:56:26;4.87;;;3.30;;
3979;SDS011;2004;52.452;13.120;2022-12-07T12:04:29;3.60;;;2.57;;
3979;SDS011;2004;52.452;13.120;2022-12-07T12:12:50;7.50;;;2.30;;
3979;SDS011;2004;52.452;13.120;2022-12-07T12:20:56;6.40;;;2.57;;
3979;SDS011;2004;52.452;13.120;2022-12-07T12:28:56;2.20;;;2.10;;
3979;SDS011;2004;52.452;13.120;2022-12-07T12:36:49;5.47;;;2.57;;
3979;SDS011;2004;52.452;13.120;2022-12-07T12:44:39;4.60;;;2.47;;
3979;SDS011;2004;52.452;13.120;2022-12-07T13:00:30;3.40;;;1.60;;
3979;SDS011;2004;52.452;13.120;2022-12-07T13:08:21;2.60;;;1.60;;
3979;SDS011;2004;52.452;13.120;2022-12-07T13:24:07;7.10;;;1.67;;
3979;SDS011;2004;52.452;13.120;2022-12-07T13:32:02;4.50;;;1.60;;
3979;SDS011;2004;52.452;13.120;2022-12-07T13:39:53;4.20;;;1.57;;
3979;SDS011;2004;52.452;13.120;2022-12-07T13:47:48;4.17;;;1.70;;
3979;SDS011;2004;52.452;13.120;2022-12-07T13:55:46;6.00;;;1.90;;
3979;SDS011;2004;52.452;13.120;2022-12-07T14:03:37;3.30;;;1.70;;
3979;SDS011;2004;52.452;13.120;2022-12-07T14:11:28;3.63;;;1.97;;
3979;SDS011;2004;52.452;13.120;2022-12-07T14:27:35;3.20;;;1.53;;
3979;SDS011;2004;52.452;13.120;2022-12-07T14:35:26;4.43;;;1.80;;
3979;SDS011;2004;52.452;13.120;2022-12-07T14:43:17;5.00;;;3.20;;
3979;SDS011;2004;52.452;13.120;2022-12-07T14:51:10;7.43;;;2.00;;
3979;SDS011;2004;52.452;13.120;2022-12-07T14:59:02;6.13;;;2.00;;
3979;SDS011;2004;52.452;13.120;2022-12-07T15:06:56;11.23;;;1.93;;
3979;SDS011;2004;52.452;13.120;2022-12-07T15:14:48;3.83;;;2.10;;
3979;SDS011;2004;52.452;13.120;2022-12-07T15:22:39;4.60;;;1.80;;
3979;SDS011;2004;52.452;13.120;2022-12-07T15:30:29;4.63;;;2.00;;
3979;SDS011;2004;52.452;13.120;2022-12-07T15:38:20;3.90;;;1.90;;
3979;SDS011;2004;52.452;13.120;2022-12-07T15:46:10;12.70;;;1.93;;
3979;SDS011;2004;52.452;13.120;2022-12-07T15:54:00;5.33;;;1.57;;
3979;SDS011;2004;52.452;13.120;2022-12-07T16:01:51;10.10;;;1.90;;
3979;SDS011;2004;52.452;13.120;2022-12-07T16:09:42;5.83;;;1.77;;
3979;SDS011;2004;52.452;13.120;2022-12-07T16:17:33;12.17;;;1.77;;
3979;SDS011;2004;52.452;13.120;2022-12-07T16:25:24;4.03;;;1.90;;
3979;SDS011;2004;52.452;13.120;2022-12-07T16:33:14;4.40;;;1.73;;
3979;SDS011;2004;52.452;13.120;2022-12-07T16:41:06;9.73;;;2.83;;
3979;SDS011;2004;52.452;13.120;2022-12-07T16:48:57;7.23;;;1.77;;
3979;SDS011;2004;52.452;13.120;2022-12-07T16:56:47;12.03;;;2.37;;
3979;SDS011;2004;52.452;13.120;2022-12-07T17:04:38;7.37;;;1.67;;
3979;SDS011;2004;52.452;13.120;2022-12-07T17:12:32;4.20;;;1.90;;
3979;SDS011;2004;52.452;13.120;2022-12-07T17:20:23;5.00;;;2.80;;
3979;SDS011;2004;52.452;13.120;2022-12-07T17:28:15;1.93;;;1.80;;
3979;SDS011;2004;52.452;13.120;2022-12-07T17:36:19;10.23;;;2.17;;
3979;SDS011;2004;52.452;13.120;2022-12-07T17:44:13;8.97;;;2.90;;
3979;SDS011;2004;52.452;13.120;2022-12-07T17:52:05;5.17;;;2.30;;
3979;SDS011;2004;52.452;13.120;2022-12-07T18:00:14;8.97;;;2.00;;
3979;SDS011;2004;52.452;13.120;2022-12-07T18:08:05;5.23;;;2.70;;
3979;SDS011;2004;52.452;13.120;2022-12-07T18:15:56;2.30;;;2.07;;
3979;SDS011;2004;52.452;13.120;2022-12-07T18:23:47;2.87;;;2.10;;
3979;SDS011;2004;52.452;13.120;2022-12-07T18:31:40;6.00;;;2.63;;
3979;SDS011;2004;52.452;13.120;2022-12-07T18:39:31;8.57;;;2.50;;
3979;SDS011;2004;52.452;13.120;2022-12-07T18:47:21;8.20;;;2.70;;
3979;SDS011;2004;52.452;13.120;2022-12-07T18:55:12;6.47;;;2.40;;
3979;SDS011;2004;52.452;13.120;2022-12-07T19:03:02;7.63;;;2.87;;
3979;SDS011;2004;52.452;13.120;2022-12-07T19:10:53;3.47;;;2.17;;
3979;SDS011;2004;52.452;13.120;2022-12-07T19:18:43;4.43;;;3.23;;
3979;SDS011;2004;52.452;13.120;2022-12-07T19:26:34;8.37;;;3.03;;
3979;SDS011;2004;52.452;13.120;2022-12-07T19:34:24;3.63;;;3.33;;
3979;SDS011;2004;52.452;13.120;2022-12-07T19:42:15;5.23;;;3.17;;
3979;SDS011;2004;52.452;13.120;2022-12-07T19:50:06;6.73;;;3.23;;
3979;SDS011;2004;52.452;13.120;2022-12-07T19:57:56;5.63;;;3.10;;
3979;SDS011;2004;52.452;13.120;2022-12-07T20:05:47;10.43;;;3.63;;
3979;SDS011;2004;52.452;13.120;2022-12-07T20:13:37;13.53;;;3.60;;
3979;SDS011;2004;52.452;13.120;2022-12-07T20:21:28;7.40;;;3.47;;
3979;SDS011;2004;52.452;13.120;2022-12-07T20:29:23;6.73;;;4.23;;
3979;SDS011;2004;52.452;13.120;2022-12-07T20:37:14;6.70;;;3.67;;
3979;SDS011;2004;52.452;13.120;2022-12-07T20:45:04;4.20;;;2.93;;
3979;SDS011;2004;52.452;13.120;2022-12-07T20:52:57;13.53;;;3.93;;
3979;SDS011;2004;52.452;13.120;2022-12-07T21:00:48;6.67;;;3.90;;
3979;SDS011;2004;52.452;13.120;2022-12-07T21:08:42;15.70;;;5.20;;
3979;SDS011;2004;52.452;13.120;2022-12-07T21:16:37;7.70;;;3.10;;
3979;SDS011;2004;52.452;13.120;2022-12-07T21:24:27;5.53;;;3.10;;
3979;SDS011;2004;52.452;13.120;2022-12-07T21:32:18;5.20;;;3.27;;
3979;SDS011;2004;52.452;13.120;2022-12-07T21:40:08;5.30;;;3.40;;
3979;SDS011;2004;52.452;13.120;2022-12-07T21:47:59;6.63;;;2.87;;
3979;SDS011;2004;52.452;13.120;2022-12-07T21:55:50;6.90;;;3.07;;
3979;SDS011;2004;52.452;13.120;2022-12-07T22:03:40;7.03;;;2.80;;
3979;SDS011;2004;52.452;13.120;2022-12-07T22:11:31;3.83;;;3.40;;
3979;SDS011;2004;52.452;13.120;2022-12-07T22:19:22;4.97;;;3.27;;
3979;SDS011;2004;52.452;13.120;2022-12-07T22:27:13;5.10;;;3.50;;
3979;SDS011;2004;52.452;13.120;2022-12-07T22:35:03;7.70;;;3.30;;
3979;SDS011;2004;52.452;13.120;2022-12-07T22:42:54;11.53;;;3.77;;
3979;SDS011;2004;52.452;13.120;2022-12-07T22:50:46;3.73;;;2.90;;
3979;SDS011;2004;52.452;13.120;2022-12-07T22:58:38;7.90;;;3.10;;
3979;SDS011;2004;52.452;13.120;2022-12-07T23:06:29;10.10;;;3.77;;
3979;SDS011;2004;52.452;13.120;2022-12-07T23:14:23;4.30;;;2.70;;
3979;SDS011;2004;52.452;13.120;2022-12-07T23:22:17;3.70;;;2.80;;
3979;SDS011;2004;52.452;13.120;2022-12-07T23:30:08;5.43;;;3.20;;
3979;SDS011;2004;52.452;13.120;2022-12-07T23:37:58;8.57;;;3.40;;
3979;SDS011;2004;52.452;13.120;2022-12-07T23:45:49;7.87;;;3.20;;
3979;SDS011;2004;52.452;13.120;2022-12-07T23:53:41;6.80;;;3.50;;
